Terminal Aerodrome Forecast
Issued by NWS Sioux Falls, SD

Home | Current Version | Previous Version | Graphics & Text | Print | Product List | Glossary On
Versions: 1 2 3 4 5 6 7 8 9 10 11 12 13 14 15 16 17
000
FTUS43 KFSD 222341
TAFFSD
TAF
KFSD 222341Z 2300/2324 20013G20KT P6SM FEW090 OVC200
     FM230200 19010KT P6SM OVC150
     FM230400 18009KT P6SM BKN120
     FM230900 14009KT P6SM VCSH BKN035
     FM231500 15010KT P6SM OVC025
     FM232200 14013KT P6SM -SHRA OVC015=

USA.gov is the U.S. government's official web portal to all federal, state and local government web resources and services.